createdAt,value
2017-07-29T00:00:27.028Z,99.90
2017-07-29T00:02:54.498Z,99.90
2017-07-29T00:05:22.014Z,99.90
2017-07-29T00:07:49.497Z,99.90
2017-07-29T00:10:16.978Z,99.90
2017-07-29T00:12:44.463Z,99.90
2017-07-29T00:15:11.945Z,99.90
2017-07-29T00:17:39.438Z,99.90
2017-07-29T00:20:06.931Z,99.90
2017-07-29T00:22:34.412Z,99.90
2017-07-29T00:25:02.015Z,99.90
2017-07-29T00:27:29.497Z,99.90
2017-07-29T00:29:57.006Z,99.90
2017-07-29T00:32:25.254Z,99.90
2017-07-29T00:34:52.744Z,99.90
2017-07-29T00:37:20.996Z,99.90
2017-07-29T00:39:48.478Z,99.90
2017-07-29T00:42:16.744Z,99.90
2017-07-29T00:44:44.974Z,99.90
2017-07-29T00:47:12.454Z,99.90
2017-07-29T00:49:39.926Z,99.90
2017-07-29T00:52:07.469Z,99.90
2017-07-29T00:54:34.955Z,99.90
2017-07-29T00:57:03.221Z,99.90
2017-07-29T00:59:30.701Z,99.90
2017-07-29T01:01:58.184Z,99.90
2017-07-29T01:04:25.659Z,99.90
2017-07-29T01:06:53.164Z,99.90
2017-07-29T01:09:21.417Z,99.90
2017-07-29T01:11:48.917Z,99.90
2017-07-29T01:14:16.393Z,99.90
2017-07-29T01:16:43.899Z,99.90
2017-07-29T01:19:12.154Z,99.90
2017-07-29T01:21:39.638Z,99.90
2017-07-29T01:24:07.128Z,99.90
2017-07-29T01:26:34.608Z,99.90
2017-07-29T01:29:02.096Z,99.90
2017-07-29T01:31:29.576Z,99.90
2017-07-29T01:33:57.849Z,99.90
2017-07-29T01:36:26.117Z,99.90
2017-07-29T01:38:53.611Z,99.90
2017-07-29T01:41:21.101Z,99.90
2017-07-29T01:43:48.590Z,99.90
2017-07-29T01:46:16.058Z,99.90
2017-07-29T01:48:44.315Z,99.90
2017-07-29T01:51:11.794Z,99.90
2017-07-29T01:53:40.066Z,99.90
2017-07-29T01:56:08.306Z,99.90
2017-07-29T01:58:35.818Z,99.90
2017-07-29T02:01:03.289Z,99.90
2017-07-29T02:03:30.777Z,99.90
2017-07-29T02:05:58.275Z,99.90
2017-07-29T02:08:26.512Z,99.90
2017-07-29T02:10:54.009Z,99.90
2017-07-29T02:13:22.243Z,99.90
2017-07-29T02:15:49.754Z,99.90
2017-07-29T02:18:18.009Z,99.90
2017-07-29T02:20:45.506Z,99.90
2017-07-29T02:23:12.980Z,99.90
2017-07-29T02:25:40.486Z,99.90
2017-07-29T02:28:07.960Z,99.90
2017-07-29T02:30:35.477Z,99.90
2017-07-29T02:33:02.959Z,99.90
2017-07-29T02:35:30.526Z,99.90
2017-07-29T02:37:58.783Z,99.90
2017-07-29T02:40:26.270Z,99.90
2017-07-29T02:42:54.508Z,99.90
2017-07-29T02:45:22.004Z,99.90
2017-07-29T02:47:50.266Z,99.90
2017-07-29T02:50:17.748Z,99.90
2017-07-29T02:52:45.238Z,99.90
2017-07-29T02:55:12.716Z,99.90
2017-07-29T02:57:40.193Z,99.90
2017-07-29T03:00:07.690Z,99.90
2017-07-29T03:02:35.171Z,99.90
2017-07-29T03:05:02.693Z,99.90
2017-07-29T03:07:30.177Z,99.90
2017-07-29T03:09:57.655Z,99.90
2017-07-29T03:12:25.139Z,99.90
2017-07-29T03:14:52.623Z,99.90
2017-07-29T03:17:20.116Z,99.90
2017-07-29T03:19:51.455Z,99.90
2017-07-29T03:22:18.965Z,99.90
2017-07-29T03:24:46.461Z,99.90
2017-07-29T03:27:20.546Z,99.90
2017-07-29T03:29:48.783Z,99.90
2017-07-29T03:32:16.293Z,99.90
2017-07-29T03:34:44.527Z,99.90
2017-07-29T03:37:12.001Z,99.90
2017-07-29T03:39:39.491Z,99.90
2017-07-29T03:42:06.974Z,99.90
2017-07-29T03:44:34.469Z,99.90
2017-07-29T03:47:01.954Z,99.90
2017-07-29T03:49:30.210Z,99.90
2017-07-29T03:51:57.684Z,99.90
2017-07-29T03:54:25.934Z,99.90
2017-07-29T03:56:53.414Z,99.90
2017-07-29T03:59:21.665Z,99.90
2017-07-29T04:01:49.144Z,99.90
2017-07-29T04:04:17.427Z,99.90
2017-07-29T04:06:45.661Z,99.90
2017-07-29T04:09:13.172Z,99.90
2017-07-29T04:11:40.690Z,99.90
2017-07-29T04:14:08.192Z,99.90
2017-07-29T04:16:35.666Z,99.90
2017-07-29T04:19:03.173Z,99.90
2017-07-29T04:21:30.649Z,99.90
2017-07-29T04:23:58.893Z,99.90
2017-07-29T04:26:26.389Z,99.90
2017-07-29T04:28:54.639Z,99.90
2017-07-29T04:31:22.130Z,99.90
2017-07-29T04:33:49.603Z,99.90
2017-07-29T04:36:17.128Z,99.90
2017-07-29T04:38:45.373Z,99.90
2017-07-29T04:41:12.868Z,99.90
2017-07-29T04:43:41.113Z,99.90
2017-07-29T04:46:08.711Z,99.90
2017-07-29T04:48:36.965Z,99.90
2017-07-29T04:51:04.450Z,99.90
2017-07-29T04:53:31.923Z,99.90
2017-07-29T04:55:59.416Z,99.90
2017-07-29T04:58:27.616Z,99.90
2017-07-29T05:00:55.103Z,99.90
2017-07-29T05:03:22.637Z,99.90
2017-07-29T05:05:50.897Z,99.90
2017-07-29T05:08:18.376Z,99.90
2017-07-29T05:10:46.624Z,99.90
2017-07-29T05:13:14.116Z,99.90
2017-07-29T05:15:43.294Z,99.90
2017-07-29T05:18:10.787Z,99.90
2017-07-29T05:20:38.258Z,99.90
2017-07-29T05:23:05.747Z,99.90
2017-07-29T05:25:33.227Z,99.90
2017-07-29T05:28:00.741Z,99.90
2017-07-29T05:30:28.206Z,99.90
2017-07-29T05:32:55.701Z,99.90
2017-07-29T05:35:24.122Z,99.90
2017-07-29T05:37:51.625Z,99.80
2017-07-29T05:40:19.116Z,99.90
2017-07-29T05:42:47.387Z,99.30
2017-07-29T05:45:15.647Z,98.90
2017-07-29T05:47:43.158Z,98.80
2017-07-29T05:50:10.630Z,98.70
2017-07-29T05:52:38.107Z,98.70
2017-07-29T05:55:05.598Z,98.30
2017-07-29T05:57:33.850Z,98.00
2017-07-29T06:00:01.338Z,98.00
2017-07-29T06:02:29.582Z,97.50
2017-07-29T06:04:57.064Z,97.50
2017-07-29T06:07:25.307Z,97.10
2017-07-29T06:09:52.788Z,97.10
2017-07-29T06:12:21.855Z,96.80
2017-07-29T06:14:49.363Z,96.70
2017-07-29T06:17:16.855Z,96.50
2017-07-29T06:19:44.341Z,96.30
2017-07-29T06:22:11.820Z,95.70
2017-07-29T06:24:40.094Z,95.60
2017-07-29T06:27:08.361Z,95.50
2017-07-29T06:29:35.864Z,95.40
2017-07-29T06:32:03.357Z,95.20
2017-07-29T06:34:30.842Z,95.20
2017-07-29T06:36:59.087Z,94.70
2017-07-29T06:39:26.591Z,94.40
2017-07-29T06:41:54.837Z,94.00
2017-07-29T06:44:22.321Z,94.00
2017-07-29T06:46:49.816Z,93.80
2017-07-29T06:49:17.330Z,93.90
2017-07-29T06:51:45.608Z,93.90
2017-07-29T06:54:13.842Z,94.00
2017-07-29T06:56:41.338Z,94.00
2017-07-29T06:59:09.577Z,94.10
2017-07-29T07:01:37.064Z,94.00
2017-07-29T07:04:05.342Z,93.90
2017-07-29T07:06:33.609Z,93.40
2017-07-29T07:09:01.180Z,93.20
2017-07-29T07:11:29.433Z,92.10
2017-07-29T07:13:56.907Z,92.10
2017-07-29T07:16:25.170Z,91.60
2017-07-29T07:18:52.657Z,91.60
2017-07-29T07:21:20.924Z,91.80
2017-07-29T07:23:48.405Z,91.80
2017-07-29T07:26:15.953Z,91.60
2017-07-29T07:28:52.454Z,92.30
2017-07-29T07:31:19.947Z,92.30
2017-07-29T07:33:47.418Z,91.80
2017-07-29T07:36:14.912Z,91.30
2017-07-29T07:38:42.378Z,91.10
2017-07-29T07:41:09.888Z,91.20
2017-07-29T07:43:37.398Z,90.10
2017-07-29T07:46:05.488Z,90.60
2017-07-29T07:48:32.985Z,90.40
2017-07-29T07:51:00.478Z,89.50
2017-07-29T07:53:27.982Z,90.40
2017-07-29T07:55:59.246Z,90.10
2017-07-29T07:58:26.755Z,86.80
2017-07-29T08:00:54.221Z,86.60
2017-07-29T08:03:21.720Z,85.60
2017-07-29T08:05:49.213Z,85.60
2017-07-29T08:08:16.723Z,84.00
2017-07-29T08:10:44.209Z,84.60
2017-07-29T08:13:12.476Z,83.60
2017-07-29T08:15:40.714Z,84.80
2017-07-29T08:18:08.194Z,84.60
2017-07-29T08:20:35.661Z,84.00
2017-07-29T08:23:03.148Z,85.00
2017-07-29T08:25:30.644Z,85.10
2017-07-29T08:27:58.158Z,83.10
2017-07-29T08:30:25.663Z,82.80
2017-07-29T08:35:47.119Z,83.20
2017-07-29T08:38:14.607Z,83.10
2017-07-29T08:40:42.855Z,84.10
2017-07-29T08:43:10.337Z,84.10
2017-07-29T08:45:38.611Z,84.80
2017-07-29T08:48:06.872Z,84.10
2017-07-29T08:50:34.405Z,84.10
2017-07-29T08:53:01.891Z,84.30
2017-07-29T08:55:29.380Z,83.10
2017-07-29T08:57:56.856Z,82.70
2017-07-29T09:00:24.346Z,83.30
2017-07-29T09:02:51.835Z,81.60
2017-07-29T09:05:20.520Z,81.60
2017-07-29T09:07:48.763Z,81.80
2017-07-29T09:10:16.272Z,81.70
2017-07-29T09:12:43.753Z,81.50
2017-07-29T09:15:11.235Z,81.20
2017-07-29T09:17:38.705Z,80.80
2017-07-29T09:20:06.193Z,79.90
2017-07-29T09:22:34.442Z,79.60
2017-07-29T09:25:01.928Z,79.60
2017-07-29T09:27:30.233Z,80.50
2017-07-29T09:29:57.735Z,80.40
2017-07-29T09:32:25.230Z,78.50
2017-07-29T09:34:52.698Z,78.40
2017-07-29T09:37:20.186Z,79.90
2017-07-29T09:39:47.663Z,79.60
2017-07-29T09:42:15.141Z,79.70
2017-07-29T09:44:43.397Z,79.30
2017-07-29T09:47:10.891Z,79.90
2017-07-29T09:49:38.363Z,78.70
2017-07-29T09:52:05.877Z,80.20
2017-07-29T09:54:33.359Z,79.10
2017-07-29T09:57:01.625Z,79.40
2017-07-29T09:59:29.873Z,78.90
2017-07-29T10:01:57.370Z,78.90
2017-07-29T10:04:24.868Z,79.20
2017-07-29T10:06:52.364Z,79.70
2017-07-29T10:09:28.918Z,79.70
2017-07-29T10:11:56.470Z,81.20
2017-07-29T10:14:23.952Z,80.90
2017-07-29T10:16:51.448Z,80.10
2017-07-29T10:19:18.978Z,79.00
2017-07-29T10:21:47.231Z,78.80
2017-07-29T10:24:14.729Z,78.70
2017-07-29T10:26:42.221Z,78.00
2017-07-29T10:29:09.727Z,77.70
2017-07-29T10:31:37.981Z,79.60
2017-07-29T10:34:05.462Z,79.50
2017-07-29T10:36:33.706Z,77.80
2017-07-29T10:39:01.296Z,77.60
2017-07-29T10:41:29.538Z,78.30
2017-07-29T10:43:57.032Z,78.20
2017-07-29T10:46:25.269Z,79.00
2017-07-29T10:48:52.762Z,78.70
2017-07-29T10:51:21.006Z,77.30
2017-07-29T10:53:48.494Z,77.30
2017-07-29T10:56:16.742Z,76.40
2017-07-29T10:58:44.216Z,76.30
2017-07-29T11:01:11.712Z,77.00
2017-07-29T11:03:39.194Z,77.10
2017-07-29T11:06:06.686Z,77.40
2017-07-29T11:08:34.264Z,77.10
2017-07-29T11:11:02.525Z,76.30
2017-07-29T11:13:30.140Z,76.20
2017-07-29T11:15:57.671Z,76.40
2017-07-29T11:18:25.992Z,77.90
2017-07-29T11:20:53.482Z,77.00
2017-07-29T11:23:20.952Z,77.70
2017-07-29T11:25:49.221Z,76.30
2017-07-29T11:28:16.716Z,76.30
2017-07-29T11:30:44.202Z,76.20
2017-07-29T11:33:11.673Z,76.70
2017-07-29T11:35:39.170Z,76.70
2017-07-29T11:38:07.416Z,76.80
2017-07-29T11:40:34.923Z,76.80
2017-07-29T11:43:02.412Z,77.10
2017-07-29T11:45:29.878Z,77.90
2017-07-29T11:47:57.376Z,76.90
2017-07-29T11:50:25.623Z,79.00
2017-07-29T11:52:53.118Z,78.90
2017-07-29T11:55:20.601Z,78.10
2017-07-29T11:57:48.097Z,76.20
2017-07-29T12:00:15.575Z,78.20
2017-07-29T12:02:43.851Z,78.50
2017-07-29T12:05:12.129Z,76.60
2017-07-29T12:07:40.380Z,75.80
2017-07-29T12:10:07.854Z,75.80
2017-07-29T12:12:35.349Z,74.40
2017-07-29T12:15:02.833Z,77.10
2017-07-29T12:17:30.320Z,78.20
2017-07-29T12:19:57.802Z,76.10
2017-07-29T12:22:26.077Z,73.40
2017-07-29T12:24:53.642Z,73.20
2017-07-29T12:27:21.901Z,74.60
2017-07-29T12:29:50.740Z,73.40
2017-07-29T12:32:18.219Z,73.60
2017-07-29T12:34:45.717Z,72.70
2017-07-29T12:37:13.966Z,77.10
2017-07-29T12:39:41.475Z,77.00
2017-07-29T12:42:08.945Z,75.20
2017-07-29T12:44:36.447Z,76.00
2017-07-29T12:47:03.931Z,73.50
2017-07-29T12:49:32.178Z,73.60
2017-07-29T12:51:59.658Z,73.50
2017-07-29T12:54:27.919Z,73.70
2017-07-29T12:56:55.386Z,73.60
2017-07-29T12:59:23.659Z,74.20
2017-07-29T13:01:51.932Z,73.50
2017-07-29T13:04:19.413Z,73.50
2017-07-29T13:06:47.661Z,72.70
2017-07-29T13:09:15.156Z,72.60
2017-07-29T13:11:42.642Z,74.90
2017-07-29T13:14:10.132Z,73.60
2017-07-29T13:16:37.615Z,74.10
2017-07-29T13:19:05.860Z,73.20
2017-07-29T13:21:33.352Z,73.10
2017-07-29T13:24:01.586Z,73.80
2017-07-29T13:26:29.093Z,73.80
2017-07-29T13:28:56.570Z,72.90
2017-07-29T13:31:24.065Z,73.30
2017-07-29T13:33:51.543Z,71.90
2017-07-29T13:36:19.822Z,75.00
2017-07-29T13:38:48.061Z,73.40
2017-07-29T13:41:15.576Z,72.40
2017-07-29T13:43:43.050Z,73.30
2017-07-29T13:46:10.538Z,72.50
2017-07-29T13:48:38.024Z,73.30
2017-07-29T13:51:06.268Z,70.20
2017-07-29T13:53:33.761Z,70.70
2017-07-29T13:56:02.024Z,70.50
2017-07-29T13:58:30.393Z,70.40
2017-07-29T14:00:57.974Z,71.60
2017-07-29T14:03:26.220Z,71.10
2017-07-29T14:05:53.702Z,71.00
2017-07-29T14:08:21.190Z,71.90
2017-07-29T14:10:48.677Z,72.60
2017-07-29T14:13:16.189Z,71.70
2017-07-29T14:15:44.429Z,72.10
2017-07-29T14:18:11.917Z,72.00
2017-07-29T14:20:40.175Z,71.40
2017-07-29T14:23:07.674Z,71.30
2017-07-29T14:25:35.157Z,71.70
2017-07-29T14:28:02.643Z,70.90
2017-07-29T14:30:30.125Z,70.90
2017-07-29T14:32:58.385Z,71.00
2017-07-29T14:35:25.962Z,70.30
2017-07-29T14:37:54.231Z,71.00
2017-07-29T14:40:21.693Z,70.30
2017-07-29T14:42:49.935Z,71.00
2017-07-29T14:45:17.416Z,70.50
2017-07-29T14:47:44.909Z,69.70
2017-07-29T14:50:12.402Z,70.80
2017-07-29T14:52:39.877Z,70.20
2017-07-29T14:55:07.372Z,70.10
2017-07-29T14:57:35.622Z,69.00
2017-07-29T15:00:03.112Z,69.00
2017-07-29T15:02:30.596Z,68.70
2017-07-29T15:04:58.085Z,70.50
2017-07-29T15:07:25.557Z,68.00
2017-07-29T15:09:53.060Z,69.50
2017-07-29T15:12:21.426Z,67.90
2017-07-29T15:14:48.934Z,69.20
2017-07-29T15:17:16.403Z,68.70
2017-07-29T15:19:43.887Z,68.20
2017-07-29T15:22:12.140Z,68.40
2017-07-29T15:24:39.631Z,68.40
2017-07-29T15:27:07.176Z,69.10
2017-07-29T15:29:35.449Z,68.50
2017-07-29T15:32:03.682Z,67.60
2017-07-29T15:34:31.154Z,67.40
2017-07-29T15:36:58.641Z,68.30
2017-07-29T15:39:26.879Z,68.00
2017-07-29T15:41:54.367Z,68.00
2017-07-29T15:44:21.834Z,67.60
2017-07-29T15:46:49.329Z,67.30
2017-07-29T15:49:16.802Z,66.20
2017-07-29T15:51:44.287Z,65.40
2017-07-29T15:54:11.753Z,65.70
2017-07-29T15:56:39.245Z,65.00
2017-07-29T15:59:06.738Z,65.20
2017-07-29T16:01:34.230Z,64.00
2017-07-29T16:04:02.461Z,64.10
2017-07-29T16:06:29.963Z,64.60
2017-07-29T16:08:58.206Z,61.30
2017-07-29T16:11:25.713Z,61.30
2017-07-29T16:13:53.954Z,62.00
2017-07-29T16:16:21.428Z,62.10
2017-07-29T16:18:49.013Z,60.60
2017-07-29T16:21:16.491Z,61.40
2017-07-29T16:23:43.972Z,62.00
2017-07-29T16:26:11.442Z,63.50
2017-07-29T16:28:38.938Z,64.40
2017-07-29T16:31:07.205Z,65.30
2017-07-29T16:33:34.689Z,65.10
2017-07-29T16:36:02.169Z,63.70
2017-07-29T16:38:29.665Z,62.30
2017-07-29T16:40:57.141Z,61.10
2017-07-29T16:43:25.398Z,62.50
2017-07-29T16:45:52.872Z,62.40
2017-07-29T16:48:21.134Z,63.60
2017-07-29T16:50:48.610Z,63.60
2017-07-29T16:53:16.867Z,65.60
2017-07-29T16:55:44.348Z,65.60
2017-07-29T16:58:12.306Z,67.10
2017-07-29T17:00:39.780Z,68.70
2017-07-29T17:03:07.263Z,69.20
2017-07-29T17:05:34.759Z,70.60
2017-07-29T17:08:02.238Z,71.60
2017-07-29T17:10:30.480Z,74.20
2017-07-29T17:13:18.426Z,74.10
2017-07-29T17:15:45.907Z,76.10
2017-07-29T17:20:50.975Z,76.80
2017-07-29T17:23:18.464Z,74.40
2017-07-29T17:25:45.993Z,70.00
2017-07-29T17:28:13.571Z,65.40
2017-07-29T17:30:41.066Z,61.90
2017-07-29T17:33:08.655Z,61.70
2017-07-29T17:35:36.927Z,64.40
2017-07-29T17:38:05.158Z,69.20
2017-07-29T17:40:32.657Z,68.30
2017-07-29T17:43:00.190Z,68.50
2017-07-29T17:45:27.663Z,73.10
2017-07-29T17:47:55.237Z,76.60
2017-07-29T17:50:22.826Z,78.70
2017-07-29T17:52:50.305Z,79.30
2017-07-29T17:55:17.783Z,79.00
2017-07-29T17:57:45.379Z,79.00
2017-07-29T18:00:13.620Z,79.20
2017-07-29T18:02:41.237Z,79.20
2017-07-29T18:05:08.720Z,79.40
2017-07-29T18:07:36.234Z,79.80
2017-07-29T18:10:04.493Z,79.90
2017-07-29T18:12:32.076Z,79.90
2017-07-29T18:15:00.338Z,82.10
2017-07-29T18:17:28.608Z,82.40
2017-07-29T18:19:56.081Z,82.60
2017-07-29T18:22:23.634Z,83.40
2017-07-29T18:24:51.907Z,83.70
2017-07-29T18:27:20.187Z,83.40
2017-07-29T18:29:48.465Z,83.80
2017-07-29T18:32:16.738Z,86.40
2017-07-29T18:34:45.006Z,87.50
2017-07-29T18:37:12.578Z,87.50
2017-07-29T18:39:40.859Z,87.70
2017-07-29T18:42:08.412Z,87.70
2017-07-29T18:44:36.682Z,87.80
2017-07-29T18:47:04.243Z,87.20
2017-07-29T18:49:32.522Z,87.90
2017-07-29T18:52:00.810Z,87.80
2017-07-29T18:54:29.084Z,88.20
2017-07-29T18:56:57.359Z,88.50
2017-07-29T18:59:25.623Z,87.90
2017-07-29T19:01:53.893Z,88.50
2017-07-29T19:04:21.483Z,88.20
2017-07-29T19:06:49.031Z,88.70
2017-07-29T19:09:17.303Z,89.50
2017-07-29T19:11:45.573Z,91.40
2017-07-29T19:14:13.846Z,91.80
2017-07-29T19:16:42.129Z,92.20
2017-07-29T19:19:10.397Z,92.20
2017-07-29T19:21:37.870Z,92.10
2017-07-29T19:24:06.141Z,92.00
2017-07-29T19:26:34.421Z,92.40
2017-07-29T19:29:02.704Z,91.70
2017-07-29T19:31:30.971Z,92.10
2017-07-29T19:33:59.239Z,92.50
2017-07-29T19:36:27.625Z,92.80
2017-07-29T19:38:55.917Z,93.00
2017-07-29T19:41:23.453Z,92.90
2017-07-29T19:43:51.026Z,93.20
2017-07-29T19:46:19.289Z,93.60
2017-07-29T19:48:46.853Z,93.60
2017-07-29T19:51:15.135Z,93.90
2017-07-29T19:53:43.358Z,93.80
2017-07-29T19:56:10.873Z,93.80
2017-07-29T19:58:39.114Z,94.20
2017-07-29T20:01:06.583Z,94.10
2017-07-29T20:03:34.153Z,94.40
2017-07-29T20:06:01.718Z,94.50
2017-07-29T20:08:29.995Z,94.70
2017-07-29T20:10:58.255Z,94.70
2017-07-29T20:13:25.759Z,94.60
2017-07-29T20:15:53.326Z,94.70
2017-07-29T20:18:20.843Z,95.20
2017-07-29T20:20:49.118Z,95.50
2017-07-29T20:23:16.686Z,95.70
2017-07-29T20:25:44.985Z,96.50
2017-07-29T20:28:12.526Z,96.40
2017-07-29T20:30:40.806Z,96.10
2017-07-29T20:33:09.073Z,95.90
2017-07-29T20:35:37.346Z,96.50
2017-07-29T20:38:05.626Z,96.30
2017-07-29T20:40:33.910Z,96.60
2017-07-29T20:43:02.187Z,96.90
2017-07-29T20:45:30.466Z,97.00
2017-07-29T20:47:59.664Z,96.70
2017-07-29T20:50:27.928Z,97.20
2017-07-29T20:52:56.211Z,97.30
2017-07-29T20:55:24.475Z,97.20
2017-07-29T20:57:52.032Z,97.20
2017-07-29T21:00:19.608Z,97.30
2017-07-29T21:02:47.860Z,97.70
2017-07-29T21:05:15.442Z,97.70
2017-07-29T21:07:43.688Z,97.70
2017-07-29T21:10:11.274Z,97.70
2017-07-29T21:12:39.557Z,98.20
2017-07-29T21:15:07.826Z,97.80
2017-07-29T21:17:36.061Z,97.70
2017-07-29T21:20:03.560Z,97.70
2017-07-29T21:22:31.833Z,97.60
2017-07-29T21:25:00.099Z,97.70
2017-07-29T21:27:27.675Z,97.70
2017-07-29T21:29:55.953Z,97.90
2017-07-29T21:32:24.218Z,98.00
2017-07-29T21:34:51.793Z,97.90
2017-07-29T21:37:20.051Z,98.50
2017-07-29T21:39:47.535Z,98.40
2017-07-29T21:42:15.086Z,98.60
2017-07-29T21:44:43.345Z,98.70
2017-07-29T21:47:10.835Z,98.70
2017-07-29T21:49:38.368Z,98.90
2017-07-29T21:52:06.631Z,99.20
2017-07-29T21:54:34.200Z,99.10
2017-07-29T21:57:02.479Z,99.60
2017-07-29T21:59:30.727Z,99.50
2017-07-29T22:01:58.218Z,99.40
2017-07-29T22:04:26.484Z,99.60
2017-07-29T22:06:53.965Z,99.60
2017-07-29T22:09:21.510Z,99.70
2017-07-29T22:11:49.802Z,99.90
2017-07-29T22:14:17.355Z,99.90
2017-07-29T22:16:44.904Z,99.90
2017-07-29T22:19:13.169Z,99.40
2017-07-29T22:21:40.753Z,99.30
2017-07-29T22:24:08.297Z,99.40
2017-07-29T22:26:36.549Z,99.70
2017-07-29T22:29:04.137Z,99.60
2017-07-29T22:31:32.387Z,99.90
2017-07-29T22:33:59.974Z,99.80
2017-07-29T22:36:28.214Z,99.80
2017-07-29T22:38:55.808Z,99.80
2017-07-29T22:41:24.096Z,99.90
2017-07-29T22:43:52.375Z,99.90
2017-07-29T22:46:19.860Z,99.90
2017-07-29T22:48:47.378Z,99.90
2017-07-29T22:51:15.649Z,99.90
2017-07-29T22:53:43.928Z,99.90
2017-07-29T22:56:12.206Z,99.90
2017-07-29T22:58:40.462Z,99.90
2017-07-29T23:01:08.009Z,99.90
2017-07-29T23:03:35.495Z,99.90
2017-07-29T23:06:03.069Z,99.90
2017-07-29T23:08:31.341Z,99.90
2017-07-29T23:10:59.609Z,99.90
2017-07-29T23:13:27.882Z,99.90
2017-07-29T23:15:56.169Z,99.90
2017-07-29T23:18:24.431Z,99.90
2017-07-29T23:20:52.000Z,99.90
2017-07-29T23:23:20.269Z,99.90
2017-07-29T23:25:47.833Z,99.90
2017-07-29T23:28:16.077Z,99.90
2017-07-29T23:30:43.573Z,99.90
2017-07-29T23:33:11.828Z,99.90
2017-07-29T23:35:39.317Z,99.90
2017-07-29T23:38:06.798Z,99.90
2017-07-29T23:40:34.336Z,99.90
2017-07-29T23:43:02.605Z,99.90
2017-07-29T23:45:30.970Z,99.90
2017-07-29T23:47:58.441Z,99.90
2017-07-29T23:50:26.704Z,99.90
2017-07-29T23:52:54.977Z,99.90
2017-07-29T23:55:22.463Z,99.90
2017-07-29T23:57:50.002Z,99.90
